createdAt,value
2023-03-05T00:03:07.146Z,18.62
2023-03-05T00:06:21.223Z,13.20
2023-03-05T00:09:35.827Z,15.93
2023-03-05T00:12:48.586Z,19.65
2023-03-05T00:16:03.561Z,16.17
2023-03-05T00:19:16.302Z,19.75
2023-03-05T00:22:28.629Z,15.88
2023-03-05T00:25:41.381Z,16.48
2023-03-05T00:28:55.029Z,15.32
2023-03-05T00:32:07.776Z,16.85
2023-03-05T00:35:20.179Z,15.10
2023-03-05T00:38:33.674Z,15.05
2023-03-05T00:41:46.144Z,16.55
2023-03-05T00:44:58.794Z,19.83
2023-03-05T00:48:11.139Z,19.42
2023-03-05T00:51:24.673Z,24.12
2023-03-05T00:54:36.971Z,16.42
2023-03-05T00:57:49.604Z,16.10
2023-03-05T01:01:02.856Z,19.98
2023-03-05T01:04:15.566Z,19.55
2023-03-05T01:07:27.874Z,20.23
2023-03-05T01:10:40.689Z,20.45
2023-03-05T01:13:53.007Z,17.77
2023-03-05T01:17:06.692Z,18.87
2023-03-05T01:20:19.897Z,17.98
2023-03-05T01:23:34.460Z,26.48
2023-03-05T01:26:47.138Z,22.77
2023-03-05T01:29:59.736Z,23.15
2023-03-05T01:33:12.043Z,20.95
2023-03-05T01:36:25.269Z,22.48
2023-03-05T01:39:37.696Z,19.52
2023-03-05T01:42:56.766Z,27.70
2023-03-05T01:46:39.523Z,20.70
2023-03-05T01:49:54.261Z,23.90
2023-03-05T01:53:06.807Z,20.92
2023-03-05T01:56:19.419Z,21.67
2023-03-05T01:59:31.833Z,23.50
2023-03-05T02:02:45.020Z,23.38
2023-03-05T02:05:57.633Z,19.45
2023-03-05T02:09:10.162Z,17.30
2023-03-05T02:12:23.005Z,17.80
2023-03-05T02:15:36.041Z,19.25
2023-03-05T02:18:48.392Z,23.40
2023-03-05T02:22:01.122Z,24.70
2023-03-05T02:25:17.357Z,19.92
2023-03-05T02:28:39.836Z,18.20
2023-03-05T02:31:53.170Z,24.10
2023-03-05T02:35:06.222Z,21.30
2023-03-05T02:38:19.696Z,21.62
2023-03-05T02:41:35.079Z,19.12
2023-03-05T02:44:47.541Z,23.02
2023-03-05T02:48:01.654Z,22.20
2023-03-05T02:51:14.417Z,18.73
2023-03-05T02:54:28.300Z,19.55
2023-03-05T02:57:40.939Z,23.35
2023-03-05T03:00:53.745Z,22.60
2023-03-05T03:04:06.227Z,22.45
2023-03-05T03:07:18.995Z,20.92
2023-03-05T03:10:31.382Z,22.10
2023-03-05T03:13:44.012Z,19.42
2023-03-05T03:16:56.419Z,18.83
2023-03-05T03:20:10.457Z,20.23
2023-03-05T03:23:23.292Z,19.00
2023-03-05T03:26:35.931Z,23.50
2023-03-05T03:29:48.232Z,19.98
2023-03-05T03:33:00.821Z,18.25
2023-03-05T03:36:13.137Z,20.15
2023-03-05T03:39:25.758Z,23.48
2023-03-05T03:42:38.051Z,21.02
2023-03-05T03:45:50.692Z,18.17
2023-03-05T03:49:03.169Z,23.08
2023-03-05T03:52:15.918Z,21.50
2023-03-05T03:55:28.269Z,20.58
2023-03-05T03:58:40.906Z,27.92
2023-03-05T04:01:53.209Z,26.90
2023-03-05T04:05:06.348Z,26.95
2023-03-05T04:08:18.709Z,36.28
2023-03-05T04:11:31.545Z,25.35
2023-03-05T04:14:50.023Z,23.65
2023-03-05T04:18:02.704Z,22.05
2023-03-05T04:21:15.104Z,18.90
2023-03-05T04:24:27.749Z,17.70
2023-03-05T04:27:42.769Z,16.45
2023-03-05T04:30:55.395Z,21.02
2023-03-05T04:34:07.807Z,23.95
2023-03-05T04:37:20.372Z,19.50
2023-03-05T04:40:32.806Z,20.00
2023-03-05T04:43:45.421Z,18.65
2023-03-05T04:46:57.774Z,21.87
2023-03-05T04:50:11.740Z,18.75
2023-03-05T04:53:24.084Z,20.20
2023-03-05T04:56:36.676Z,19.23
2023-03-05T04:59:48.996Z,21.08
2023-03-05T05:03:01.690Z,18.67
2023-03-05T05:06:14.055Z,16.52
2023-03-05T05:09:26.650Z,17.35
2023-03-05T05:12:39.093Z,21.33
2023-03-05T05:15:51.886Z,13.90
2023-03-05T05:19:04.339Z,20.42
2023-03-05T05:22:16.975Z,17.00
2023-03-05T05:25:29.375Z,22.05
2023-03-05T05:28:45.640Z,17.20
2023-03-05T05:31:58.021Z,16.35
2023-03-05T05:35:10.980Z,22.15
2023-03-05T05:38:23.286Z,19.50
2023-03-05T05:41:35.900Z,18.35
2023-03-05T05:44:48.248Z,15.93
2023-03-05T05:48:00.888Z,20.50
2023-03-05T05:51:15.108Z,17.65
2023-03-05T05:54:27.744Z,24.90
2023-03-05T05:57:40.179Z,29.83
2023-03-05T06:00:52.797Z,29.87
2023-03-05T06:04:05.377Z,32.00
2023-03-05T06:07:17.731Z,29.35
2023-03-05T06:10:30.352Z,28.55
2023-03-05T06:13:42.713Z,22.15
2023-03-05T06:16:55.432Z,23.95
2023-03-05T06:20:08.564Z,20.23
2023-03-05T06:23:21.213Z,26.60
2023-03-05T06:26:33.540Z,25.10
2023-03-05T06:29:46.192Z,29.08
2023-03-05T06:32:59.606Z,26.83
2023-03-05T06:36:13.713Z,33.15
2023-03-05T06:39:26.009Z,30.92
2023-03-05T06:42:38.680Z,25.60
2023-03-05T06:46:00.872Z,23.12
2023-03-05T06:49:13.497Z,21.45
2023-03-05T06:52:25.868Z,33.42
2023-03-05T06:55:39.833Z,23.85
2023-03-05T06:58:52.218Z,24.00
2023-03-05T07:02:04.945Z,27.85
2023-03-05T07:05:17.403Z,24.48
2023-03-05T07:08:30.061Z,27.37
2023-03-05T07:11:42.508Z,41.28
2023-03-05T07:14:55.118Z,48.63
2023-03-05T07:18:07.536Z,43.22
2023-03-05T07:21:24.351Z,26.60
2023-03-05T07:24:36.825Z,26.13
2023-03-05T07:27:49.443Z,30.50
2023-03-05T07:31:22.592Z,21.90
2023-03-05T07:34:37.601Z,22.62
2023-03-05T07:37:50.269Z,82.45
2023-03-05T07:41:19.886Z,64.60
2023-03-05T07:44:32.252Z,39.65
2023-03-05T07:47:44.905Z,23.48
2023-03-05T07:51:01.963Z,32.22
2023-03-05T07:57:26.717Z,25.35
2023-03-05T08:00:39.533Z,32.13
2023-03-05T08:03:52.244Z,26.42
2023-03-05T08:07:04.695Z,44.72
2023-03-05T08:10:17.472Z,31.83
2023-03-05T08:13:29.778Z,23.25
2023-03-05T08:16:42.464Z,26.67
2023-03-05T08:19:57.740Z,29.12
2023-03-05T08:23:10.353Z,30.62
2023-03-05T08:26:23.513Z,26.42
2023-03-05T08:29:36.238Z,28.35
2023-03-05T08:32:49.410Z,30.12
2023-03-05T08:36:01.997Z,28.62
2023-03-05T08:39:14.343Z,24.27
2023-03-05T08:42:26.969Z,24.73
2023-03-05T08:45:40.107Z,26.10
2023-03-05T08:48:52.708Z,22.80
2023-03-05T08:52:05.184Z,24.87
2023-03-05T08:55:17.912Z,27.40
2023-03-05T08:58:30.252Z,26.50
2023-03-05T09:01:42.968Z,25.45
2023-03-05T09:04:55.319Z,22.85
2023-03-05T09:08:07.948Z,22.23
2023-03-05T09:11:20.683Z,39.00
2023-03-05T09:14:33.317Z,20.00
2023-03-05T09:17:45.707Z,20.65
2023-03-05T09:20:58.284Z,23.85
2023-03-05T09:24:11.859Z,17.73
2023-03-05T09:27:24.473Z,20.73
2023-03-05T09:30:36.884Z,20.02
2023-03-05T09:33:49.686Z,20.45
2023-03-05T09:37:03.118Z,21.05
2023-03-05T09:40:17.058Z,24.00
2023-03-05T09:44:15.520Z,29.02
2023-03-05T09:47:40.383Z,23.38
2023-03-05T09:51:00.229Z,19.15
2023-03-05T09:54:17.875Z,18.42
2023-03-05T09:57:36.681Z,20.48
2023-03-05T10:00:50.681Z,16.33
2023-03-05T10:04:09.298Z,17.23
2023-03-05T10:07:26.240Z,17.30
2023-03-05T10:10:43.289Z,14.13
2023-03-05T10:13:55.796Z,14.25
2023-03-05T10:17:33.548Z,14.93
2023-03-05T10:20:59.483Z,16.50
2023-03-05T10:24:32.179Z,18.45
2023-03-05T10:28:06.109Z,17.52
2023-03-05T10:31:44.789Z,19.37
2023-03-05T10:35:18.360Z,18.87
2023-03-05T10:38:40.077Z,25.42
2023-03-05T10:42:02.672Z,16.23
2023-03-05T10:45:24.653Z,29.33
2023-03-05T10:48:39.904Z,26.25
2023-03-05T10:52:28.290Z,18.42
2023-03-05T10:55:40.712Z,16.17
2023-03-05T10:58:53.622Z,16.52
2023-03-05T11:02:08.897Z,15.85
2023-03-05T11:06:00.617Z,15.73
2023-03-05T11:09:32.481Z,19.40
2023-03-05T11:12:45.322Z,19.80
2023-03-05T11:16:05.553Z,15.73
2023-03-05T11:19:29.942Z,14.10
2023-03-05T11:22:42.287Z,15.98
2023-03-05T11:26:21.897Z,13.75
2023-03-05T11:29:34.788Z,15.00
2023-03-05T11:32:47.423Z,15.23
2023-03-05T11:36:17.985Z,15.13
2023-03-05T11:39:33.122Z,17.42
2023-03-05T11:42:45.473Z,14.82
2023-03-05T11:46:05.256Z,14.30
2023-03-05T11:49:22.815Z,13.98
2023-03-05T11:52:58.293Z,15.90
2023-03-05T11:56:13.422Z,16.05
2023-03-05T11:59:28.858Z,15.52
2023-03-05T12:02:41.254Z,17.42
2023-03-05T12:05:57.090Z,18.60
2023-03-05T12:09:11.537Z,14.73
2023-03-05T12:12:37.512Z,16.42
2023-03-05T12:15:49.992Z,17.95
2023-03-05T12:19:05.640Z,22.62
2023-03-05T12:22:32.964Z,19.62
2023-03-05T12:25:53.071Z,17.08
2023-03-05T12:29:05.438Z,17.58
2023-03-05T12:32:33.355Z,17.87
2023-03-05T12:35:46.460Z,18.17
2023-03-05T12:39:00.203Z,15.95
2023-03-05T12:42:31.424Z,18.83
2023-03-05T12:45:45.492Z,18.77
2023-03-05T12:48:57.841Z,15.82
2023-03-05T12:52:23.300Z,16.98
2023-03-05T12:55:47.630Z,13.40
2023-03-05T12:59:00.523Z,17.50
2023-03-05T13:02:39.922Z,19.73
2023-03-05T13:05:57.122Z,15.05
2023-03-05T13:09:38.735Z,18.62
2023-03-05T13:12:55.431Z,14.05
2023-03-05T13:16:20.205Z,13.97
2023-03-05T13:19:33.361Z,13.85
2023-03-05T13:22:45.710Z,12.25
2023-03-05T13:26:12.258Z,13.20
2023-03-05T13:29:30.724Z,14.68
2023-03-05T13:32:43.373Z,15.73
2023-03-05T13:35:55.698Z,12.52
2023-03-05T13:39:15.803Z,13.30
2023-03-05T13:42:31.403Z,10.73
2023-03-05T13:45:44.577Z,12.98
2023-03-05T13:48:57.698Z,21.23
2023-03-05T13:52:10.325Z,13.50
2023-03-05T13:55:22.657Z,15.32
2023-03-05T13:58:54.618Z,14.70
2023-03-05T14:02:18.121Z,16.42
2023-03-05T14:05:31.427Z,12.95
2023-03-05T14:08:43.748Z,18.33
2023-03-05T14:11:58.614Z,13.45
2023-03-05T14:15:22.893Z,13.10
2023-03-05T14:18:35.879Z,17.58
2023-03-05T14:21:49.648Z,14.60
2023-03-05T14:25:03.219Z,14.02
2023-03-05T14:28:18.217Z,14.80
2023-03-05T14:31:34.347Z,14.93
2023-03-05T14:34:48.878Z,17.20
2023-03-05T14:38:01.562Z,21.00
2023-03-05T14:41:29.256Z,16.20
2023-03-05T14:44:42.097Z,12.48
2023-03-05T14:47:55.345Z,10.45
2023-03-05T14:51:09.238Z,13.27
2023-03-05T14:54:22.910Z,11.32
2023-03-05T14:57:35.498Z,11.00
2023-03-05T15:00:50.899Z,10.98
2023-03-05T15:04:03.794Z,13.60
2023-03-05T15:07:21.185Z,10.98
2023-03-05T15:10:33.820Z,14.48
2023-03-05T15:13:46.196Z,11.23
2023-03-05T15:16:58.818Z,13.88
2023-03-05T15:20:14.383Z,15.50
2023-03-05T15:23:29.727Z,15.82
2023-03-05T15:26:42.108Z,14.57
2023-03-05T15:29:54.713Z,13.38
2023-03-05T15:33:12.565Z,12.00
2023-03-05T15:36:25.204Z,12.18
2023-03-05T15:39:37.505Z,16.40
2023-03-05T15:42:50.204Z,11.77
2023-03-05T15:46:05.560Z,10.02
2023-03-05T15:49:18.252Z,13.35
